sensor_id;sensor_type;location;lat;lon;timestamp;P1;durP1;ratioP1;P2;durP2;ratioP2
59424;SDS011;45231;44.826;20.312;2023-04-25T00:01:46;10.32;;;7.63;;
59424;SDS011;45231;44.826;20.312;2023-04-25T00:04:13;11.73;;;9.38;;
59424;SDS011;45231;44.826;20.312;2023-04-25T00:06:39;13.02;;;9.48;;
59424;SDS011;45231;44.826;20.312;2023-04-25T00:09:05;14.60;;;10.68;;
59424;SDS011;45231;44.826;20.312;2023-04-25T00:11:36;14.63;;;10.93;;
59424;SDS011;45231;44.826;20.312;2023-04-25T00:14:02;14.57;;;10.77;;
59424;SDS011;45231;44.826;20.312;2023-04-25T00:16:29;13.48;;;9.77;;
59424;SDS011;45231;44.826;20.312;2023-04-25T00:18:58;13.27;;;9.48;;
59424;SDS011;45231;44.826;20.312;2023-04-25T00:21:24;11.57;;;9.10;;
59424;SDS011;45231;44.826;20.312;2023-04-25T00:23:52;13.13;;;9.02;;
59424;SDS011;45231;44.826;20.312;2023-04-25T00:26:18;12.23;;;9.52;;
59424;SDS011;45231;44.826;20.312;2023-04-25T00:28:46;10.40;;;7.80;;
59424;SDS011;45231;44.826;20.312;2023-04-25T00:31:12;11.13;;;7.55;;
59424;SDS011;45231;44.826;20.312;2023-04-25T00:33:38;12.02;;;6.85;;
59424;SDS011;45231;44.826;20.312;2023-04-25T00:36:05;9.40;;;6.35;;
59424;SDS011;45231;44.826;20.312;2023-04-25T00:38:31;8.32;;;6.38;;
59424;SDS011;45231;44.826;20.312;2023-04-25T00:40:57;9.90;;;6.63;;
59424;SDS011;45231;44.826;20.312;2023-04-25T00:43:25;11.70;;;7.47;;
59424;SDS011;45231;44.826;20.312;2023-04-25T00:45:51;8.52;;;6.32;;
59424;SDS011;45231;44.826;20.312;2023-04-25T00:48:17;9.20;;;6.47;;
59424;SDS011;45231;44.826;20.312;2023-04-25T00:50:51;9.80;;;7.53;;
59424;SDS011;45231;44.826;20.312;2023-04-25T00:53:17;10.93;;;7.22;;
59424;SDS011;45231;44.826;20.312;2023-04-25T00:55:43;8.38;;;6.63;;
59424;SDS011;45231;44.826;20.312;2023-04-25T00:58:09;9.63;;;6.30;;
59424;SDS011;45231;44.826;20.312;2023-04-25T01:00:36;9.82;;;6.97;;
59424;SDS011;45231;44.826;20.312;2023-04-25T01:03:02;9.43;;;7.00;;
59424;SDS011;45231;44.826;20.312;2023-04-25T01:07:55;10.60;;;7.03;;
59424;SDS011;45231;44.826;20.312;2023-04-25T01:10:21;9.93;;;7.18;;
59424;SDS011;45231;44.826;20.312;2023-04-25T01:12:47;10.43;;;7.18;;
59424;SDS011;45231;44.826;20.312;2023-04-25T01:15:13;10.57;;;6.75;;
59424;SDS011;45231;44.826;20.312;2023-04-25T01:17:39;10.80;;;6.90;;
59424;SDS011;45231;44.826;20.312;2023-04-25T01:20:07;8.60;;;6.07;;
59424;SDS011;45231;44.826;20.312;2023-04-25T01:22:34;9.30;;;5.82;;
59424;SDS011;45231;44.826;20.312;2023-04-25T01:25:00;7.15;;;4.40;;
59424;SDS011;45231;44.826;20.312;2023-04-25T01:27:27;7.45;;;4.35;;
59424;SDS011;45231;44.826;20.312;2023-04-25T01:29:54;8.15;;;4.85;;
59424;SDS011;45231;44.826;20.312;2023-04-25T01:32:21;8.15;;;4.00;;
59424;SDS011;45231;44.826;20.312;2023-04-25T01:34:48;6.38;;;3.65;;
59424;SDS011;45231;44.826;20.312;2023-04-25T01:37:14;6.55;;;3.85;;
59424;SDS011;45231;44.826;20.312;2023-04-25T01:39:40;7.05;;;4.00;;
59424;SDS011;45231;44.826;20.312;2023-04-25T01:42:06;7.60;;;3.65;;
59424;SDS011;45231;44.826;20.312;2023-04-25T01:44:32;6.47;;;3.03;;
59424;SDS011;45231;44.826;20.312;2023-04-25T01:46:58;7.55;;;3.50;;
59424;SDS011;45231;44.826;20.312;2023-04-25T01:49:24;6.13;;;3.40;;
59424;SDS011;45231;44.826;20.312;2023-04-25T01:51:50;6.55;;;3.45;;
59424;SDS011;45231;44.826;20.312;2023-04-25T01:54:16;7.07;;;3.58;;
59424;SDS011;45231;44.826;20.312;2023-04-25T01:56:42;9.27;;;4.05;;
59424;SDS011;45231;44.826;20.312;2023-04-25T01:59:08;7.93;;;4.03;;
59424;SDS011;45231;44.826;20.312;2023-04-25T02:01:35;7.65;;;4.10;;
59424;SDS011;45231;44.826;20.312;2023-04-25T02:04:01;8.65;;;4.47;;
59424;SDS011;45231;44.826;20.312;2023-04-25T02:06:27;8.75;;;4.45;;
59424;SDS011;45231;44.826;20.312;2023-04-25T02:08:53;7.75;;;4.70;;
59424;SDS011;45231;44.826;20.312;2023-04-25T02:11:19;8.10;;;4.68;;
59424;SDS011;45231;44.826;20.312;2023-04-25T02:13:45;8.80;;;4.57;;
59424;SDS011;45231;44.826;20.312;2023-04-25T02:16:11;8.57;;;5.07;;
59424;SDS011;45231;44.826;20.312;2023-04-25T02:21:04;8.38;;;5.07;;
59424;SDS011;45231;44.826;20.312;2023-04-25T02:23:30;7.82;;;5.10;;
59424;SDS011;45231;44.826;20.312;2023-04-25T02:25:56;9.53;;;5.43;;
59424;SDS011;45231;44.826;20.312;2023-04-25T02:28:23;8.60;;;5.07;;
59424;SDS011;45231;44.826;20.312;2023-04-25T02:30:50;9.77;;;5.47;;
59424;SDS011;45231;44.826;20.312;2023-04-25T02:33:16;10.43;;;5.70;;
59424;SDS011;45231;44.826;20.312;2023-04-25T02:35:42;9.35;;;5.85;;
59424;SDS011;45231;44.826;20.312;2023-04-25T02:38:08;10.17;;;5.90;;
59424;SDS011;45231;44.826;20.312;2023-04-25T02:40:34;9.20;;;6.22;;
59424;SDS011;45231;44.826;20.312;2023-04-25T02:43:00;9.85;;;5.53;;
59424;SDS011;45231;44.826;20.312;2023-04-25T02:45:26;11.18;;;6.30;;
59424;SDS011;45231;44.826;20.312;2023-04-25T02:47:52;10.88;;;6.25;;
59424;SDS011;45231;44.826;20.312;2023-04-25T02:50:18;8.85;;;5.05;;
59424;SDS011;45231;44.826;20.312;2023-04-25T02:52:44;10.00;;;5.32;;
59424;SDS011;45231;44.826;20.312;2023-04-25T02:55:12;8.80;;;5.15;;
59424;SDS011;45231;44.826;20.312;2023-04-25T02:57:38;9.20;;;5.50;;
59424;SDS011;45231;44.826;20.312;2023-04-25T03:00:04;10.45;;;5.68;;
59424;SDS011;45231;44.826;20.312;2023-04-25T03:02:30;9.73;;;5.38;;
59424;SDS011;45231;44.826;20.312;2023-04-25T03:04:56;9.98;;;5.50;;
59424;SDS011;45231;44.826;20.312;2023-04-25T03:07:23;11.13;;;5.72;;
59424;SDS011;45231;44.826;20.312;2023-04-25T03:09:49;11.73;;;5.47;;
59424;SDS011;45231;44.826;20.312;2023-04-25T03:12:15;8.23;;;5.55;;
59424;SDS011;45231;44.826;20.312;2023-04-25T03:14:41;7.40;;;4.63;;
59424;SDS011;45231;44.826;20.312;2023-04-25T03:17:07;10.05;;;5.63;;
59424;SDS011;45231;44.826;20.312;2023-04-25T03:19:33;8.77;;;4.82;;
59424;SDS011;45231;44.826;20.312;2023-04-25T03:21:59;10.15;;;5.38;;
59424;SDS011;45231;44.826;20.312;2023-04-25T03:24:25;7.35;;;4.72;;
59424;SDS011;45231;44.826;20.312;2023-04-25T03:26:52;7.28;;;4.53;;
59424;SDS011;45231;44.826;20.312;2023-04-25T03:29:18;8.65;;;5.03;;
59424;SDS011;45231;44.826;20.312;2023-04-25T03:31:44;11.32;;;5.78;;
59424;SDS011;45231;44.826;20.312;2023-04-25T03:34:10;8.07;;;4.70;;
59424;SDS011;45231;44.826;20.312;2023-04-25T03:36:36;9.45;;;4.70;;
59424;SDS011;45231;44.826;20.312;2023-04-25T03:39:02;8.68;;;4.93;;
59424;SDS011;45231;44.826;20.312;2023-04-25T03:41:28;9.32;;;5.07;;
59424;SDS011;45231;44.826;20.312;2023-04-25T03:43:55;8.57;;;4.40;;
59424;SDS011;45231;44.826;20.312;2023-04-25T03:46:21;9.30;;;4.80;;
59424;SDS011;45231;44.826;20.312;2023-04-25T03:48:47;7.10;;;4.30;;
59424;SDS011;45231;44.826;20.312;2023-04-25T03:51:13;7.65;;;4.40;;
59424;SDS011;45231;44.826;20.312;2023-04-25T03:53:39;9.05;;;4.70;;
59424;SDS011;45231;44.826;20.312;2023-04-25T03:56:05;7.88;;;4.35;;
59424;SDS011;45231;44.826;20.312;2023-04-25T03:58:31;9.40;;;4.85;;
59424;SDS011;45231;44.826;20.312;2023-04-25T04:00:57;6.53;;;3.97;;
59424;SDS011;45231;44.826;20.312;2023-04-25T04:03:23;9.35;;;4.53;;
59424;SDS011;45231;44.826;20.312;2023-04-25T04:05:49;9.75;;;4.57;;
59424;SDS011;45231;44.826;20.312;2023-04-25T04:08:15;9.40;;;4.80;;
59424;SDS011;45231;44.826;20.312;2023-04-25T04:10:41;8.00;;;4.75;;
59424;SDS011;45231;44.826;20.312;2023-04-25T04:13:07;7.53;;;4.72;;
59424;SDS011;45231;44.826;20.312;2023-04-25T04:15:33;7.97;;;4.70;;
59424;SDS011;45231;44.826;20.312;2023-04-25T04:17:59;9.00;;;5.20;;
59424;SDS011;45231;44.826;20.312;2023-04-25T04:20:28;8.93;;;5.40;;
59424;SDS011;45231;44.826;20.312;2023-04-25T04:22:55;9.07;;;4.78;;
59424;SDS011;45231;44.826;20.312;2023-04-25T04:25:21;9.50;;;5.72;;
59424;SDS011;45231;44.826;20.312;2023-04-25T04:27:47;10.53;;;6.03;;
59424;SDS011;45231;44.826;20.312;2023-04-25T04:30:13;7.93;;;4.85;;
59424;SDS011;45231;44.826;20.312;2023-04-25T04:35:06;8.05;;;4.53;;
59424;SDS011;45231;44.826;20.312;2023-04-25T04:37:34;8.43;;;4.43;;
59424;SDS011;45231;44.826;20.312;2023-04-25T04:40:00;6.88;;;3.92;;
59424;SDS011;45231;44.826;20.312;2023-04-25T04:42:30;6.22;;;3.70;;
59424;SDS011;45231;44.826;20.312;2023-04-25T04:44:56;6.07;;;2.80;;
59424;SDS011;45231;44.826;20.312;2023-04-25T04:49:50;5.63;;;2.78;;
59424;SDS011;45231;44.826;20.312;2023-04-25T04:52:16;10.30;;;3.20;;
59424;SDS011;45231;44.826;20.312;2023-04-25T04:54:42;6.57;;;2.95;;
59424;SDS011;45231;44.826;20.312;2023-04-25T04:57:08;7.87;;;3.27;;
59424;SDS011;45231;44.826;20.312;2023-04-25T04:59:34;6.20;;;3.60;;
59424;SDS011;45231;44.826;20.312;2023-04-25T05:02:01;7.47;;;3.97;;
59424;SDS011;45231;44.826;20.312;2023-04-25T05:04:27;7.53;;;4.43;;
59424;SDS011;45231;44.826;20.312;2023-04-25T05:06:53;9.15;;;5.53;;
59424;SDS011;45231;44.826;20.312;2023-04-25T05:09:19;8.88;;;5.38;;
59424;SDS011;45231;44.826;20.312;2023-04-25T05:11:45;8.50;;;5.25;;
59424;SDS011;45231;44.826;20.312;2023-04-25T05:14:11;8.75;;;5.25;;
59424;SDS011;45231;44.826;20.312;2023-04-25T05:16:37;8.90;;;5.70;;
59424;SDS011;45231;44.826;20.312;2023-04-25T05:19:03;7.50;;;5.20;;
59424;SDS011;45231;44.826;20.312;2023-04-25T05:21:29;8.97;;;5.80;;
59424;SDS011;45231;44.826;20.312;2023-04-25T05:23:56;9.38;;;5.80;;
59424;SDS011;45231;44.826;20.312;2023-04-25T05:26:22;13.77;;;6.37;;
59424;SDS011;45231;44.826;20.312;2023-04-25T05:28:49;9.43;;;6.70;;
59424;SDS011;45231;44.826;20.312;2023-04-25T05:31:16;9.73;;;6.60;;
59424;SDS011;45231;44.826;20.312;2023-04-25T05:33:42;11.50;;;6.28;;
59424;SDS011;45231;44.826;20.312;2023-04-25T05:36:08;10.33;;;6.60;;
59424;SDS011;45231;44.826;20.312;2023-04-25T05:38:34;10.88;;;7.22;;
59424;SDS011;45231;44.826;20.312;2023-04-25T05:41:00;10.53;;;6.77;;
59424;SDS011;45231;44.826;20.312;2023-04-25T05:43:26;9.80;;;6.70;;
59424;SDS011;45231;44.826;20.312;2023-04-25T05:45:52;11.82;;;5.95;;
59424;SDS011;45231;44.826;20.312;2023-04-25T05:48:18;11.55;;;5.88;;
59424;SDS011;45231;44.826;20.312;2023-04-25T05:50:44;8.57;;;5.80;;
59424;SDS011;45231;44.826;20.312;2023-04-25T05:53:10;7.93;;;5.20;;
59424;SDS011;45231;44.826;20.312;2023-04-25T05:55:37;8.88;;;5.25;;
59424;SDS011;45231;44.826;20.312;2023-04-25T05:58:03;8.73;;;5.60;;
59424;SDS011;45231;44.826;20.312;2023-04-25T06:00:29;9.53;;;6.00;;
59424;SDS011;45231;44.826;20.312;2023-04-25T06:02:55;9.85;;;5.43;;
59424;SDS011;45231;44.826;20.312;2023-04-25T06:05:21;7.70;;;5.23;;
59424;SDS011;45231;44.826;20.312;2023-04-25T06:07:47;9.27;;;5.77;;
59424;SDS011;45231;44.826;20.312;2023-04-25T06:10:13;10.03;;;5.47;;
59424;SDS011;45231;44.826;20.312;2023-04-25T06:12:40;7.83;;;5.27;;
59424;SDS011;45231;44.826;20.312;2023-04-25T06:15:06;7.97;;;5.20;;
59424;SDS011;45231;44.826;20.312;2023-04-25T06:17:32;9.60;;;5.32;;
59424;SDS011;45231;44.826;20.312;2023-04-25T06:19:59;8.23;;;5.53;;
59424;SDS011;45231;44.826;20.312;2023-04-25T06:22:25;9.68;;;5.68;;
59424;SDS011;45231;44.826;20.312;2023-04-25T06:24:51;6.50;;;4.60;;
59424;SDS011;45231;44.826;20.312;2023-04-25T06:27:17;8.00;;;5.53;;
59424;SDS011;45231;44.826;20.312;2023-04-25T06:29:43;9.37;;;5.50;;
59424;SDS011;45231;44.826;20.312;2023-04-25T06:32:09;8.97;;;6.17;;
59424;SDS011;45231;44.826;20.312;2023-04-25T06:34:35;10.73;;;6.80;;
59424;SDS011;45231;44.826;20.312;2023-04-25T06:37:01;8.90;;;6.63;;
59424;SDS011;45231;44.826;20.312;2023-04-25T06:39:27;11.17;;;7.13;;
59424;SDS011;45231;44.826;20.312;2023-04-25T06:41:53;10.37;;;6.73;;
59424;SDS011;45231;44.826;20.312;2023-04-25T06:44:19;12.27;;;6.40;;
59424;SDS011;45231;44.826;20.312;2023-04-25T06:46:48;8.57;;;5.50;;
59424;SDS011;45231;44.826;20.312;2023-04-25T06:49:14;10.27;;;6.07;;
59424;SDS011;45231;44.826;20.312;2023-04-25T06:51:40;9.07;;;5.55;;
59424;SDS011;45231;44.826;20.312;2023-04-25T06:54:06;10.38;;;5.30;;
59424;SDS011;45231;44.826;20.312;2023-04-25T06:56:32;7.77;;;5.10;;
59424;SDS011;45231;44.826;20.312;2023-04-25T06:58:59;7.77;;;4.70;;
59424;SDS011;45231;44.826;20.312;2023-04-25T07:01:25;7.80;;;4.63;;
59424;SDS011;45231;44.826;20.312;2023-04-25T07:03:51;6.57;;;4.68;;
59424;SDS011;45231;44.826;20.312;2023-04-25T07:06:17;9.67;;;6.10;;
59424;SDS011;45231;44.826;20.312;2023-04-25T07:08:43;7.65;;;4.97;;
59424;SDS011;45231;44.826;20.312;2023-04-25T07:11:09;8.65;;;4.80;;
59424;SDS011;45231;44.826;20.312;2023-04-25T07:13:35;8.17;;;4.77;;
59424;SDS011;45231;44.826;20.312;2023-04-25T07:16:02;7.70;;;4.97;;
59424;SDS011;45231;44.826;20.312;2023-04-25T07:18:28;8.10;;;4.85;;
59424;SDS011;45231;44.826;20.312;2023-04-25T07:20:54;7.07;;;4.70;;
59424;SDS011;45231;44.826;20.312;2023-04-25T07:23:20;6.90;;;4.60;;
59424;SDS011;45231;44.826;20.312;2023-04-25T07:25:46;7.63;;;4.50;;
59424;SDS011;45231;44.826;20.312;2023-04-25T07:28:12;8.27;;;4.82;;
59424;SDS011;45231;44.826;20.312;2023-04-25T07:30:38;10.02;;;4.95;;
59424;SDS011;45231;44.826;20.312;2023-04-25T07:33:04;7.43;;;4.80;;
59424;SDS011;45231;44.826;20.312;2023-04-25T07:35:31;7.00;;;4.47;;
59424;SDS011;45231;44.826;20.312;2023-04-25T07:37:57;8.10;;;4.40;;
59424;SDS011;45231;44.826;20.312;2023-04-25T07:42:49;9.32;;;4.57;;
59424;SDS011;45231;44.826;20.312;2023-04-25T07:45:16;7.63;;;4.17;;
59424;SDS011;45231;44.826;20.312;2023-04-25T07:47:42;8.63;;;4.60;;
59424;SDS011;45231;44.826;20.312;2023-04-25T07:50:08;7.97;;;4.80;;
59424;SDS011;45231;44.826;20.312;2023-04-25T07:52:35;8.82;;;4.30;;
59424;SDS011;45231;44.826;20.312;2023-04-25T07:55:01;7.60;;;4.65;;
59424;SDS011;45231;44.826;20.312;2023-04-25T07:57:27;7.97;;;4.18;;
59424;SDS011;45231;44.826;20.312;2023-04-25T07:59:53;7.95;;;4.22;;
59424;SDS011;45231;44.826;20.312;2023-04-25T08:02:19;8.40;;;4.18;;
59424;SDS011;45231;44.826;20.312;2023-04-25T08:04:45;8.65;;;4.10;;
59424;SDS011;45231;44.826;20.312;2023-04-25T08:07:11;7.78;;;4.07;;
59424;SDS011;45231;44.826;20.312;2023-04-25T08:09:38;6.60;;;3.53;;
59424;SDS011;45231;44.826;20.312;2023-04-25T08:12:04;7.22;;;3.80;;
59424;SDS011;45231;44.826;20.312;2023-04-25T08:14:30;7.38;;;4.10;;
59424;SDS011;45231;44.826;20.312;2023-04-25T08:17:01;7.28;;;3.80;;
59424;SDS011;45231;44.826;20.312;2023-04-25T08:19:28;7.90;;;3.70;;
59424;SDS011;45231;44.826;20.312;2023-04-25T08:21:54;7.40;;;4.25;;
59424;SDS011;45231;44.826;20.312;2023-04-25T08:26:47;7.97;;;3.55;;
59424;SDS011;45231;44.826;20.312;2023-04-25T08:29:13;7.55;;;3.92;;
59424;SDS011;45231;44.826;20.312;2023-04-25T08:31:40;5.93;;;3.20;;
59424;SDS011;45231;44.826;20.312;2023-04-25T08:34:06;6.50;;;3.30;;
59424;SDS011;45231;44.826;20.312;2023-04-25T08:36:32;4.60;;;2.70;;
59424;SDS011;45231;44.826;20.312;2023-04-25T08:38:58;5.88;;;2.92;;
59424;SDS011;45231;44.826;20.312;2023-04-25T08:41:24;5.75;;;2.60;;
59424;SDS011;45231;44.826;20.312;2023-04-25T08:43:51;5.35;;;2.67;;
59424;SDS011;45231;44.826;20.312;2023-04-25T08:46:18;4.35;;;2.40;;
59424;SDS011;45231;44.826;20.312;2023-04-25T08:51:10;6.15;;;2.55;;
59424;SDS011;45231;44.826;20.312;2023-04-25T08:53:40;4.75;;;2.45;;
59424;SDS011;45231;44.826;20.312;2023-04-25T08:56:07;3.47;;;2.03;;
59424;SDS011;45231;44.826;20.312;2023-04-25T08:58:34;3.95;;;2.10;;
59424;SDS011;45231;44.826;20.312;2023-04-25T09:01:01;4.80;;;2.13;;
59424;SDS011;45231;44.826;20.312;2023-04-25T09:03:27;5.20;;;2.03;;
59424;SDS011;45231;44.826;20.312;2023-04-25T09:05:53;6.72;;;2.20;;
59424;SDS011;45231;44.826;20.312;2023-04-25T09:08:21;5.68;;;2.33;;
59424;SDS011;45231;44.826;20.312;2023-04-25T09:10:47;4.38;;;2.22;;
59424;SDS011;45231;44.826;20.312;2023-04-25T09:13:14;5.28;;;2.28;;
59424;SDS011;45231;44.826;20.312;2023-04-25T09:15:47;5.80;;;2.53;;
59424;SDS011;45231;44.826;20.312;2023-04-25T09:18:14;5.68;;;2.58;;
59424;SDS011;45231;44.826;20.312;2023-04-25T09:20:47;5.85;;;2.30;;
59424;SDS011;45231;44.826;20.312;2023-04-25T09:23:14;5.57;;;2.60;;
59424;SDS011;45231;44.826;20.312;2023-04-25T09:30:35;5.32;;;2.40;;
59424;SDS011;45231;44.826;20.312;2023-04-25T09:33:09;4.97;;;1.75;;
59424;SDS011;45231;44.826;20.312;2023-04-25T09:35:36;4.25;;;1.80;;
59424;SDS011;45231;44.826;20.312;2023-04-25T09:38:13;3.90;;;2.03;;
59424;SDS011;45231;44.826;20.312;2023-04-25T09:40:40;5.33;;;2.00;;
59424;SDS011;45231;44.826;20.312;2023-04-25T09:43:10;3.75;;;1.85;;
59424;SDS011;45231;44.826;20.312;2023-04-25T09:45:42;4.90;;;1.60;;
59424;SDS011;45231;44.826;20.312;2023-04-25T09:48:21;3.95;;;1.50;;
59424;SDS011;45231;44.826;20.312;2023-04-25T09:53:36;5.40;;;2.60;;
59424;SDS011;45231;44.826;20.312;2023-04-25T09:56:03;7.18;;;2.45;;
59424;SDS011;45231;44.826;20.312;2023-04-25T09:58:30;4.78;;;2.38;;
59424;SDS011;45231;44.826;20.312;2023-04-25T10:01:00;7.45;;;2.50;;
59424;SDS011;45231;44.826;20.312;2023-04-25T10:03:29;5.95;;;2.55;;
59424;SDS011;45231;44.826;20.312;2023-04-25T10:05:56;6.97;;;2.30;;
59424;SDS011;45231;44.826;20.312;2023-04-25T10:08:24;8.05;;;2.30;;
59424;SDS011;45231;44.826;20.312;2023-04-25T10:10:52;4.53;;;2.45;;
59424;SDS011;45231;44.826;20.312;2023-04-25T10:13:20;4.30;;;2.38;;
59424;SDS011;45231;44.826;20.312;2023-04-25T10:15:46;6.53;;;2.60;;
59424;SDS011;45231;44.826;20.312;2023-04-25T10:18:12;4.53;;;2.00;;
59424;SDS011;45231;44.826;20.312;2023-04-25T10:20:38;4.82;;;2.03;;
59424;SDS011;45231;44.826;20.312;2023-04-25T10:23:12;5.03;;;2.15;;
59424;SDS011;45231;44.826;20.312;2023-04-25T10:25:40;4.18;;;1.83;;
59424;SDS011;45231;44.826;20.312;2023-04-25T10:28:06;4.47;;;2.10;;
59424;SDS011;45231;44.826;20.312;2023-04-25T10:30:32;4.72;;;1.90;;
59424;SDS011;45231;44.826;20.312;2023-04-25T10:32:58;3.85;;;1.80;;
59424;SDS011;45231;44.826;20.312;2023-04-25T10:35:28;5.85;;;2.00;;
59424;SDS011;45231;44.826;20.312;2023-04-25T10:37:59;3.65;;;1.80;;
59424;SDS011;45231;44.826;20.312;2023-04-25T10:40:26;4.55;;;1.60;;
59424;SDS011;45231;44.826;20.312;2023-04-25T10:45:21;3.33;;;1.80;;
59424;SDS011;45231;44.826;20.312;2023-04-25T10:50:14;4.00;;;1.80;;
59424;SDS011;45231;44.826;20.312;2023-04-25T10:52:43;4.20;;;2.38;;
59424;SDS011;45231;44.826;20.312;2023-04-25T10:55:09;3.67;;;1.77;;
59424;SDS011;45231;44.826;20.312;2023-04-25T11:02:45;4.68;;;1.85;;
59424;SDS011;45231;44.826;20.312;2023-04-25T11:05:20;4.27;;;1.77;;
59424;SDS011;45231;44.826;20.312;2023-04-25T11:07:53;2.58;;;1.42;;
59424;SDS011;45231;44.826;20.312;2023-04-25T11:10:25;4.63;;;1.70;;
59424;SDS011;45231;44.826;20.312;2023-04-25T11:12:51;3.95;;;2.28;;
59424;SDS011;45231;44.826;20.312;2023-04-25T11:15:17;4.70;;;1.60;;
59424;SDS011;45231;44.826;20.312;2023-04-25T11:17:43;4.07;;;1.90;;
59424;SDS011;45231;44.826;20.312;2023-04-25T11:20:11;7.50;;;1.98;;
59424;SDS011;45231;44.826;20.312;2023-04-25T11:22:38;4.90;;;1.90;;
59424;SDS011;45231;44.826;20.312;2023-04-25T11:25:08;4.65;;;1.75;;
59424;SDS011;45231;44.826;20.312;2023-04-25T11:30:09;2.75;;;1.60;;
59424;SDS011;45231;44.826;20.312;2023-04-25T11:32:35;4.53;;;2.17;;
59424;SDS011;45231;44.826;20.312;2023-04-25T11:35:02;4.63;;;1.77;;
59424;SDS011;45231;44.826;20.312;2023-04-25T11:37:28;4.97;;;2.00;;
59424;SDS011;45231;44.826;20.312;2023-04-25T11:42:20;6.28;;;1.80;;
59424;SDS011;45231;44.826;20.312;2023-04-25T11:44:46;3.60;;;1.52;;
59424;SDS011;45231;44.826;20.312;2023-04-25T11:47:12;2.42;;;1.35;;
59424;SDS011;45231;44.826;20.312;2023-04-25T11:49:38;4.60;;;1.63;;
59424;SDS011;45231;44.826;20.312;2023-04-25T11:52:06;4.25;;;1.80;;
59424;SDS011;45231;44.826;20.312;2023-04-25T11:54:34;5.78;;;1.40;;
59424;SDS011;45231;44.826;20.312;2023-04-25T11:57:01;6.47;;;1.70;;
59424;SDS011;45231;44.826;20.312;2023-04-25T11:59:27;3.90;;;1.55;;
59424;SDS011;45231;44.826;20.312;2023-04-25T12:01:53;4.25;;;1.60;;
59424;SDS011;45231;44.826;20.312;2023-04-25T12:06:46;2.67;;;1.27;;
59424;SDS011;45231;44.826;20.312;2023-04-25T12:09:51;4.63;;;1.70;;
59424;SDS011;45231;44.826;20.312;2023-04-25T12:12:09;4.75;;;2.08;;
59424;SDS011;45231;44.826;20.312;2023-04-25T12:14:35;5.80;;;2.00;;
59424;SDS011;45231;44.826;20.312;2023-04-25T12:17:02;4.63;;;1.40;;
59424;SDS011;45231;44.826;20.312;2023-04-25T12:19:32;2.80;;;1.27;;
59424;SDS011;45231;44.826;20.312;2023-04-25T12:22:00;3.30;;;1.40;;
59424;SDS011;45231;44.826;20.312;2023-04-25T12:24:26;5.60;;;1.48;;
59424;SDS011;45231;44.826;20.312;2023-04-25T12:26:53;2.97;;;1.30;;
59424;SDS011;45231;44.826;20.312;2023-04-25T12:29:23;3.28;;;1.40;;
59424;SDS011;45231;44.826;20.312;2023-04-25T12:31:50;3.45;;;1.80;;
59424;SDS011;45231;44.826;20.312;2023-04-25T12:34:17;3.60;;;1.60;;
59424;SDS011;45231;44.826;20.312;2023-04-25T12:39:13;2.72;;;1.40;;
59424;SDS011;45231;44.826;20.312;2023-04-25T12:41:40;4.15;;;1.42;;
59424;SDS011;45231;44.826;20.312;2023-04-25T12:44:06;3.97;;;1.80;;
59424;SDS011;45231;44.826;20.312;2023-04-25T12:46:32;3.78;;;1.38;;
59424;SDS011;45231;44.826;20.312;2023-04-25T12:48:58;5.90;;;1.80;;
59424;SDS011;45231;44.826;20.312;2023-04-25T12:51:25;3.72;;;1.88;;
59424;SDS011;45231;44.826;20.312;2023-04-25T12:53:52;5.13;;;1.80;;
59424;SDS011;45231;44.826;20.312;2023-04-25T12:56:19;5.93;;;2.38;;
59424;SDS011;45231;44.826;20.312;2023-04-25T12:58:45;7.13;;;2.20;;
59424;SDS011;45231;44.826;20.312;2023-04-25T13:01:13;5.05;;;2.00;;
59424;SDS011;45231;44.826;20.312;2023-04-25T13:03:39;7.30;;;2.20;;
59424;SDS011;45231;44.826;20.312;2023-04-25T13:06:08;4.07;;;1.98;;
59424;SDS011;45231;44.826;20.312;2023-04-25T13:08:35;4.38;;;1.98;;
59424;SDS011;45231;44.826;20.312;2023-04-25T13:11:02;5.32;;;1.90;;
59424;SDS011;45231;44.826;20.312;2023-04-25T13:13:28;5.07;;;2.10;;
59424;SDS011;45231;44.826;20.312;2023-04-25T13:15:56;4.50;;;1.70;;
59424;SDS011;45231;44.826;20.312;2023-04-25T13:18:22;4.63;;;1.60;;
59424;SDS011;45231;44.826;20.312;2023-04-25T13:20:54;5.30;;;1.83;;
59424;SDS011;45231;44.826;20.312;2023-04-25T13:23:21;4.88;;;1.35;;
59424;SDS011;45231;44.826;20.312;2023-04-25T13:25:47;3.53;;;1.45;;
59424;SDS011;45231;44.826;20.312;2023-04-25T13:28:13;5.75;;;1.65;;
59424;SDS011;45231;44.826;20.312;2023-04-25T13:30:39;4.75;;;1.58;;
59424;SDS011;45231;44.826;20.312;2023-04-25T13:33:06;2.85;;;1.35;;
59424;SDS011;45231;44.826;20.312;2023-04-25T13:35:32;3.88;;;1.33;;
59424;SDS011;45231;44.826;20.312;2023-04-25T13:37:58;3.92;;;1.40;;
59424;SDS011;45231;44.826;20.312;2023-04-25T13:42:52;3.13;;;1.20;;
59424;SDS011;45231;44.826;20.312;2023-04-25T13:45:18;2.97;;;1.40;;
59424;SDS011;45231;44.826;20.312;2023-04-25T13:47:45;5.55;;;1.42;;
59424;SDS011;45231;44.826;20.312;2023-04-25T13:50:12;4.43;;;1.80;;
59424;SDS011;45231;44.826;20.312;2023-04-25T13:52:39;2.60;;;1.42;;
59424;SDS011;45231;44.826;20.312;2023-04-25T13:55:06;4.35;;;1.48;;
59424;SDS011;45231;44.826;20.312;2023-04-25T13:57:33;5.03;;;1.42;;
59424;SDS011;45231;44.826;20.312;2023-04-25T14:00:00;3.20;;;1.33;;
59424;SDS011;45231;44.826;20.312;2023-04-25T14:02:33;3.33;;;1.38;;
59424;SDS011;45231;44.826;20.312;2023-04-25T14:04:59;3.58;;;1.60;;
59424;SDS011;45231;44.826;20.312;2023-04-25T14:07:26;5.93;;;2.30;;
59424;SDS011;45231;44.826;20.312;2023-04-25T14:09:52;3.38;;;1.40;;
59424;SDS011;45231;44.826;20.312;2023-04-25T14:12:18;4.13;;;1.50;;
59424;SDS011;45231;44.826;20.312;2023-04-25T14:14:44;2.47;;;1.20;;
59424;SDS011;45231;44.826;20.312;2023-04-25T14:17:10;3.75;;;1.40;;
59424;SDS011;45231;44.826;20.312;2023-04-25T14:19:37;4.97;;;1.40;;
59424;SDS011;45231;44.826;20.312;2023-04-25T14:22:09;4.68;;;1.50;;
59424;SDS011;45231;44.826;20.312;2023-04-25T14:24:37;5.18;;;1.40;;
59424;SDS011;45231;44.826;20.312;2023-04-25T14:27:06;3.42;;;1.30;;
59424;SDS011;45231;44.826;20.312;2023-04-25T14:29:32;3.03;;;1.35;;
59424;SDS011;45231;44.826;20.312;2023-04-25T14:31:58;6.97;;;1.60;;
59424;SDS011;45231;44.826;20.312;2023-04-25T14:36:51;3.65;;;1.27;;
59424;SDS011;45231;44.826;20.312;2023-04-25T14:39:17;5.90;;;1.10;;
59424;SDS011;45231;44.826;20.312;2023-04-25T14:41:44;2.58;;;1.38;;
59424;SDS011;45231;44.826;20.312;2023-04-25T14:44:10;2.40;;;1.17;;
59424;SDS011;45231;44.826;20.312;2023-04-25T14:46:36;5.25;;;1.40;;
59424;SDS011;45231;44.826;20.312;2023-04-25T14:49:02;5.38;;;1.67;;
59424;SDS011;45231;44.826;20.312;2023-04-25T14:51:29;4.20;;;1.60;;
59424;SDS011;45231;44.826;20.312;2023-04-25T14:53:56;4.78;;;1.70;;
59424;SDS011;45231;44.826;20.312;2023-04-25T14:56:22;4.68;;;1.45;;
59424;SDS011;45231;44.826;20.312;2023-04-25T14:58:49;4.75;;;1.50;;
59424;SDS011;45231;44.826;20.312;2023-04-25T15:01:15;6.57;;;1.60;;
59424;SDS011;45231;44.826;20.312;2023-04-25T15:03:41;5.40;;;1.75;;
59424;SDS011;45231;44.826;20.312;2023-04-25T15:06:07;3.15;;;1.30;;
59424;SDS011;45231;44.826;20.312;2023-04-25T15:08:33;5.75;;;1.42;;
59424;SDS011;45231;44.826;20.312;2023-04-25T15:11:00;4.90;;;1.30;;
59424;SDS011;45231;44.826;20.312;2023-04-25T15:13:28;2.85;;;1.40;;
59424;SDS011;45231;44.826;20.312;2023-04-25T15:15:57;4.75;;;1.42;;
59424;SDS011;45231;44.826;20.312;2023-04-25T15:18:23;3.22;;;1.50;;
59424;SDS011;45231;44.826;20.312;2023-04-25T15:20:52;3.10;;;1.48;;